Redwood City, CA (94064)

10:11 AM PST on December 08, 2016 (GMT -0800)
Mount Carmel | | Change Station

Elev 32 ft 37.48 °N, 122.23 °W | Updated 1 minute ago

Overcast
Overcast
59.1 °F
Feels Like 59.1 °F
N
4.0
Wind Variable Wind from East

Today
High -- | Low -- °F
--% Chance of Precip.
Yesterday
High -- | Low -- °F
Precip. -- in
Pressure 30.11 in
Visibility 3.0 miles
Clouds Overcast 2200 ft
Dew Point 42 °F
Humidity 52%
Rainfall 0.51 in
Snow Depth Not available.
7:11 AM 4:50 PM
Waxing Gibbous, 65% visible
METAR KSQL 081647Z 13004KT 3SM BR OVC022 12/12 A3011
Pressure 30.11 in
Visibility 3.0 miles
Clouds Overcast 2200 ft
Dew Point 42 °F
Humidity 52%
Rainfall 0.51 in
Snow Depth Not available.
7:11 AM 4:50 PM
Waxing Gibbous, 65% visible
METAR KSQL 081647Z 13004KT 3SM BR OVC022 12/12 A3011

10-Day Weather Forecast

Almanac

Astronomy

Dec. 08, 2016 Rise Set
Actual Time
Civil Twilight
Nautical Twilight
Astronomical Twilight
Moon
Length of Visible Light
Length of Day
Tomorrow will be .
, % of the Moon is Illuminated

Today's Extremes

State Highs State Lows

Community

WunderPhotos

Upload Photos

1,956,277 photos uploaded!

WunderBlog® & News

Nearby

Air Quality

  Air Quality AQ Index Pollutant
Not available.

Snow Depth

Station Depth Elevation

Earthquake Activity

City Distance Mag. Time & Date
Minimum magnitude displayed is 2.5.

Coastal Water Temperatures

Place Temperature

Stations

Nearby Weather Stations

Station Location Temp. Windchill Dew Point Humidity Wind Precip. Elev Updated Type
                   

Watches & Warnings

There are currently no watches in effect.